sensor_id;sensor_type;location;lat;lon;timestamp;P1;durP1;ratioP1;P2;durP2;ratioP2
21352;SDS011;10834;52.268;6.770;2023-12-20T00:00:36;10.03;;;3.10;;
21352;SDS011;10834;52.268;6.770;2023-12-20T00:03:24;17.07;;;3.47;;
21352;SDS011;10834;52.268;6.770;2023-12-20T00:06:08;11.23;;;3.40;;
21352;SDS011;10834;52.268;6.770;2023-12-20T00:08:53;7.47;;;2.93;;
21352;SDS011;10834;52.268;6.770;2023-12-20T00:11:37;4.20;;;2.70;;
21352;SDS011;10834;52.268;6.770;2023-12-20T00:14:21;8.07;;;3.17;;
21352;SDS011;10834;52.268;6.770;2023-12-20T00:17:05;11.47;;;3.80;;
21352;SDS011;10834;52.268;6.770;2023-12-20T00:19:50;6.37;;;2.83;;
21352;SDS011;10834;52.268;6.770;2023-12-20T00:22:34;4.10;;;2.70;;
21352;SDS011;10834;52.268;6.770;2023-12-20T00:25:18;4.83;;;3.03;;
21352;SDS011;10834;52.268;6.770;2023-12-20T00:28:02;6.33;;;3.03;;
21352;SDS011;10834;52.268;6.770;2023-12-20T00:30:46;7.53;;;2.93;;
21352;SDS011;10834;52.268;6.770;2023-12-20T00:33:30;7.50;;;3.43;;
21352;SDS011;10834;52.268;6.770;2023-12-20T00:36:14;7.57;;;3.17;;
21352;SDS011;10834;52.268;6.770;2023-12-20T00:38:58;4.20;;;3.17;;
21352;SDS011;10834;52.268;6.770;2023-12-20T00:41:43;10.97;;;2.90;;
21352;SDS011;10834;52.268;6.770;2023-12-20T00:44:27;7.63;;;2.70;;
21352;SDS011;10834;52.268;6.770;2023-12-20T00:47:11;7.07;;;3.00;;
21352;SDS011;10834;52.268;6.770;2023-12-20T00:49:57;13.33;;;3.93;;
21352;SDS011;10834;52.268;6.770;2023-12-20T00:52:42;7.33;;;3.73;;
21352;SDS011;10834;52.268;6.770;2023-12-20T00:55:26;10.57;;;3.93;;
21352;SDS011;10834;52.268;6.770;2023-12-20T00:58:10;10.50;;;4.23;;
21352;SDS011;10834;52.268;6.770;2023-12-20T01:00:54;11.53;;;5.17;;
21352;SDS011;10834;52.268;6.770;2023-12-20T01:03:38;12.50;;;6.50;;
21352;SDS011;10834;52.268;6.770;2023-12-20T01:06:22;9.77;;;3.97;;
21352;SDS011;10834;52.268;6.770;2023-12-20T01:09:06;12.00;;;4.53;;
21352;SDS011;10834;52.268;6.770;2023-12-20T01:11:51;11.13;;;4.80;;
21352;SDS011;10834;52.268;6.770;2023-12-20T01:14:35;10.70;;;4.40;;
21352;SDS011;10834;52.268;6.770;2023-12-20T01:17:20;13.17;;;5.40;;
21352;SDS011;10834;52.268;6.770;2023-12-20T01:20:04;17.33;;;5.57;;
21352;SDS011;10834;52.268;6.770;2023-12-20T01:22:49;13.67;;;4.97;;
21352;SDS011;10834;52.268;6.770;2023-12-20T01:25:33;8.77;;;4.57;;
21352;SDS011;10834;52.268;6.770;2023-12-20T01:28:17;12.37;;;5.00;;
21352;SDS011;10834;52.268;6.770;2023-12-20T01:31:01;12.63;;;4.73;;
21352;SDS011;10834;52.268;6.770;2023-12-20T01:33:45;19.97;;;5.07;;
21352;SDS011;10834;52.268;6.770;2023-12-20T01:36:29;12.93;;;4.90;;
21352;SDS011;10834;52.268;6.770;2023-12-20T01:39:14;10.43;;;4.60;;
21352;SDS011;10834;52.268;6.770;2023-12-20T01:41:58;11.80;;;4.80;;
21352;SDS011;10834;52.268;6.770;2023-12-20T01:44:42;11.43;;;5.00;;
21352;SDS011;10834;52.268;6.770;2023-12-20T01:47:26;11.33;;;4.27;;
21352;SDS011;10834;52.268;6.770;2023-12-20T01:50:11;12.90;;;4.67;;
21352;SDS011;10834;52.268;6.770;2023-12-20T01:52:58;16.37;;;4.13;;
21352;SDS011;10834;52.268;6.770;2023-12-20T01:55:44;12.67;;;3.53;;
21352;SDS011;10834;52.268;6.770;2023-12-20T01:58:29;10.77;;;3.50;;
21352;SDS011;10834;52.268;6.770;2023-12-20T02:01:13;16.13;;;3.87;;
21352;SDS011;10834;52.268;6.770;2023-12-20T02:03:58;13.27;;;3.30;;
21352;SDS011;10834;52.268;6.770;2023-12-20T02:06:44;11.03;;;3.33;;
21352;SDS011;10834;52.268;6.770;2023-12-20T02:09:30;18.80;;;3.83;;
21352;SDS011;10834;52.268;6.770;2023-12-20T02:12:14;7.80;;;3.03;;
21352;SDS011;10834;52.268;6.770;2023-12-20T02:14:58;15.47;;;3.40;;
21352;SDS011;10834;52.268;6.770;2023-12-20T02:17:42;9.57;;;3.27;;
21352;SDS011;10834;52.268;6.770;2023-12-20T02:20:28;7.07;;;2.80;;
21352;SDS011;10834;52.268;6.770;2023-12-20T02:23:12;10.00;;;3.13;;
21352;SDS011;10834;52.268;6.770;2023-12-20T02:25:56;19.10;;;2.97;;
21352;SDS011;10834;52.268;6.770;2023-12-20T02:28:40;8.67;;;2.43;;
21352;SDS011;10834;52.268;6.770;2023-12-20T02:31:24;13.53;;;2.47;;
21352;SDS011;10834;52.268;6.770;2023-12-20T02:34:09;13.70;;;2.70;;
21352;SDS011;10834;52.268;6.770;2023-12-20T02:36:53;16.27;;;3.10;;
21352;SDS011;10834;52.268;6.770;2023-12-20T02:39:37;17.97;;;3.07;;
21352;SDS011;10834;52.268;6.770;2023-12-20T02:42:21;11.70;;;2.57;;
21352;SDS011;10834;52.268;6.770;2023-12-20T02:45:05;13.23;;;2.90;;
21352;SDS011;10834;52.268;6.770;2023-12-20T02:47:50;10.20;;;2.50;;
21352;SDS011;10834;52.268;6.770;2023-12-20T02:50:34;14.63;;;2.83;;
21352;SDS011;10834;52.268;6.770;2023-12-20T02:53:18;19.13;;;2.67;;
21352;SDS011;10834;52.268;6.770;2023-12-20T02:56:02;19.33;;;3.60;;
21352;SDS011;10834;52.268;6.770;2023-12-20T02:58:47;12.50;;;2.60;;
21352;SDS011;10834;52.268;6.770;2023-12-20T03:01:31;16.20;;;3.10;;
21352;SDS011;10834;52.268;6.770;2023-12-20T03:04:15;10.93;;;2.57;;
21352;SDS011;10834;52.268;6.770;2023-12-20T03:06:59;15.00;;;3.47;;
21352;SDS011;10834;52.268;6.770;2023-12-20T03:09:43;16.63;;;2.57;;
21352;SDS011;10834;52.268;6.770;2023-12-20T03:12:27;11.73;;;3.07;;
21352;SDS011;10834;52.268;6.770;2023-12-20T03:15:12;14.30;;;2.83;;
21352;SDS011;10834;52.268;6.770;2023-12-20T03:17:56;11.07;;;3.77;;
21352;SDS011;10834;52.268;6.770;2023-12-20T03:20:42;5.83;;;2.97;;
21352;SDS011;10834;52.268;6.770;2023-12-20T03:23:27;11.47;;;3.40;;
21352;SDS011;10834;52.268;6.770;2023-12-20T03:26:11;13.63;;;2.63;;
21352;SDS011;10834;52.268;6.770;2023-12-20T03:28:55;15.23;;;2.70;;
21352;SDS011;10834;52.268;6.770;2023-12-20T03:31:40;13.87;;;3.33;;
21352;SDS011;10834;52.268;6.770;2023-12-20T03:34:23;13.37;;;3.50;;
21352;SDS011;10834;52.268;6.770;2023-12-20T03:37:08;15.33;;;3.00;;
21352;SDS011;10834;52.268;6.770;2023-12-20T03:39:51;13.67;;;3.23;;
21352;SDS011;10834;52.268;6.770;2023-12-20T03:42:36;16.17;;;2.93;;
21352;SDS011;10834;52.268;6.770;2023-12-20T03:45:19;12.07;;;2.70;;
21352;SDS011;10834;52.268;6.770;2023-12-20T03:48:04;15.07;;;2.93;;
21352;SDS011;10834;52.268;6.770;2023-12-20T03:50:48;14.80;;;3.60;;
21352;SDS011;10834;52.268;6.770;2023-12-20T03:53:33;17.47;;;3.17;;
21352;SDS011;10834;52.268;6.770;2023-12-20T03:56:17;14.77;;;2.80;;
21352;SDS011;10834;52.268;6.770;2023-12-20T03:59:01;12.43;;;3.00;;
21352;SDS011;10834;52.268;6.770;2023-12-20T04:01:45;15.10;;;2.63;;
21352;SDS011;10834;52.268;6.770;2023-12-20T04:04:29;12.47;;;2.53;;
21352;SDS011;10834;52.268;6.770;2023-12-20T04:07:14;11.17;;;2.90;;
21352;SDS011;10834;52.268;6.770;2023-12-20T04:09:58;12.60;;;3.07;;
21352;SDS011;10834;52.268;6.770;2023-12-20T04:12:42;14.20;;;2.60;;
21352;SDS011;10834;52.268;6.770;2023-12-20T04:15:26;8.47;;;2.57;;
21352;SDS011;10834;52.268;6.770;2023-12-20T04:18:10;8.90;;;2.83;;
21352;SDS011;10834;52.268;6.770;2023-12-20T04:20:55;17.10;;;3.33;;
21352;SDS011;10834;52.268;6.770;2023-12-20T04:23:39;13.37;;;3.13;;
21352;SDS011;10834;52.268;6.770;2023-12-20T04:26:23;19.67;;;3.50;;
21352;SDS011;10834;52.268;6.770;2023-12-20T04:29:07;15.03;;;3.67;;
21352;SDS011;10834;52.268;6.770;2023-12-20T04:31:51;11.13;;;2.63;;
21352;SDS011;10834;52.268;6.770;2023-12-20T04:34:35;13.97;;;2.80;;
21352;SDS011;10834;52.268;6.770;2023-12-20T04:37:20;16.07;;;3.33;;
21352;SDS011;10834;52.268;6.770;2023-12-20T04:40:04;12.50;;;3.10;;
21352;SDS011;10834;52.268;6.770;2023-12-20T04:42:49;10.97;;;2.43;;
21352;SDS011;10834;52.268;6.770;2023-12-20T04:45:33;19.30;;;3.30;;
21352;SDS011;10834;52.268;6.770;2023-12-20T04:48:17;18.33;;;2.90;;
21352;SDS011;10834;52.268;6.770;2023-12-20T04:51:01;15.17;;;3.10;;
21352;SDS011;10834;52.268;6.770;2023-12-20T04:53:45;13.10;;;3.33;;
21352;SDS011;10834;52.268;6.770;2023-12-20T04:56:29;13.10;;;3.07;;
21352;SDS011;10834;52.268;6.770;2023-12-20T04:59:13;14.73;;;3.00;;
21352;SDS011;10834;52.268;6.770;2023-12-20T05:01:58;15.70;;;2.87;;
21352;SDS011;10834;52.268;6.770;2023-12-20T05:04:43;20.27;;;3.73;;
21352;SDS011;10834;52.268;6.770;2023-12-20T05:07:27;18.37;;;3.50;;
21352;SDS011;10834;52.268;6.770;2023-12-20T05:10:11;14.97;;;2.90;;
21352;SDS011;10834;52.268;6.770;2023-12-20T05:12:55;15.30;;;2.67;;
21352;SDS011;10834;52.268;6.770;2023-12-20T05:15:39;18.93;;;3.50;;
21352;SDS011;10834;52.268;6.770;2023-12-20T05:18:23;14.63;;;3.30;;
21352;SDS011;10834;52.268;6.770;2023-12-20T05:21:07;16.77;;;3.40;;
21352;SDS011;10834;52.268;6.770;2023-12-20T05:23:51;16.33;;;3.80;;
21352;SDS011;10834;52.268;6.770;2023-12-20T05:26:36;11.80;;;2.93;;
21352;SDS011;10834;52.268;6.770;2023-12-20T05:29:20;15.43;;;3.20;;
21352;SDS011;10834;52.268;6.770;2023-12-20T05:32:04;21.37;;;4.13;;
21352;SDS011;10834;52.268;6.770;2023-12-20T05:34:48;16.03;;;4.73;;
21352;SDS011;10834;52.268;6.770;2023-12-20T05:37:32;11.17;;;3.27;;
21352;SDS011;10834;52.268;6.770;2023-12-20T05:40:17;17.03;;;4.60;;
21352;SDS011;10834;52.268;6.770;2023-12-20T05:43:01;21.20;;;4.07;;
21352;SDS011;10834;52.268;6.770;2023-12-20T05:45:46;23.80;;;3.57;;
21352;SDS011;10834;52.268;6.770;2023-12-20T05:48:30;9.90;;;3.93;;
21352;SDS011;10834;52.268;6.770;2023-12-20T05:51:14;15.23;;;3.63;;
21352;SDS011;10834;52.268;6.770;2023-12-20T05:53:58;20.70;;;3.43;;
21352;SDS011;10834;52.268;6.770;2023-12-20T05:56:43;16.40;;;3.07;;
21352;SDS011;10834;52.268;6.770;2023-12-20T05:59:27;21.90;;;3.27;;
21352;SDS011;10834;52.268;6.770;2023-12-20T06:02:11;18.67;;;3.30;;
21352;SDS011;10834;52.268;6.770;2023-12-20T06:04:55;13.20;;;3.10;;
21352;SDS011;10834;52.268;6.770;2023-12-20T06:07:40;11.57;;;3.07;;
21352;SDS011;10834;52.268;6.770;2023-12-20T06:10:24;12.17;;;2.70;;
21352;SDS011;10834;52.268;6.770;2023-12-20T06:13:08;9.27;;;2.80;;
21352;SDS011;10834;52.268;6.770;2023-12-20T06:15:54;25.67;;;3.47;;
21352;SDS011;10834;52.268;6.770;2023-12-20T06:18:39;19.17;;;3.20;;
21352;SDS011;10834;52.268;6.770;2023-12-20T06:21:24;17.07;;;3.33;;
21352;SDS011;10834;52.268;6.770;2023-12-20T06:24:08;14.23;;;3.20;;
21352;SDS011;10834;52.268;6.770;2023-12-20T06:26:54;18.13;;;4.73;;
21352;SDS011;10834;52.268;6.770;2023-12-20T06:29:41;16.60;;;3.17;;
21352;SDS011;10834;52.268;6.770;2023-12-20T06:32:26;19.63;;;3.87;;
21352;SDS011;10834;52.268;6.770;2023-12-20T06:35:12;15.60;;;3.30;;
21352;SDS011;10834;52.268;6.770;2023-12-20T06:37:57;19.77;;;3.40;;
21352;SDS011;10834;52.268;6.770;2023-12-20T06:40:42;12.37;;;2.93;;
21352;SDS011;10834;52.268;6.770;2023-12-20T06:43:26;13.80;;;3.23;;
21352;SDS011;10834;52.268;6.770;2023-12-20T06:46:10;15.47;;;3.83;;
21352;SDS011;10834;52.268;6.770;2023-12-20T06:48:56;11.90;;;3.60;;
21352;SDS011;10834;52.268;6.770;2023-12-20T06:51:41;17.13;;;3.30;;
21352;SDS011;10834;52.268;6.770;2023-12-20T06:54:25;12.20;;;2.87;;
21352;SDS011;10834;52.268;6.770;2023-12-20T06:57:09;17.37;;;4.00;;
21352;SDS011;10834;52.268;6.770;2023-12-20T06:59:53;19.00;;;3.43;;
21352;SDS011;10834;52.268;6.770;2023-12-20T07:02:37;20.40;;;2.87;;
21352;SDS011;10834;52.268;6.770;2023-12-20T07:05:21;14.10;;;3.07;;
21352;SDS011;10834;52.268;6.770;2023-12-20T07:08:05;11.93;;;3.33;;
21352;SDS011;10834;52.268;6.770;2023-12-20T07:10:49;15.87;;;3.10;;
21352;SDS011;10834;52.268;6.770;2023-12-20T07:13:33;14.87;;;3.53;;
21352;SDS011;10834;52.268;6.770;2023-12-20T07:16:18;16.37;;;2.83;;
21352;SDS011;10834;52.268;6.770;2023-12-20T07:19:02;18.47;;;3.83;;
21352;SDS011;10834;52.268;6.770;2023-12-20T07:21:47;14.90;;;2.93;;
21352;SDS011;10834;52.268;6.770;2023-12-20T07:24:31;13.63;;;5.80;;
21352;SDS011;10834;52.268;6.770;2023-12-20T07:27:15;12.50;;;2.80;;
21352;SDS011;10834;52.268;6.770;2023-12-20T07:30:00;17.23;;;4.23;;
21352;SDS011;10834;52.268;6.770;2023-12-20T07:32:44;13.90;;;3.03;;
21352;SDS011;10834;52.268;6.770;2023-12-20T07:35:28;14.97;;;2.83;;
21352;SDS011;10834;52.268;6.770;2023-12-20T07:38:12;14.83;;;5.10;;
21352;SDS011;10834;52.268;6.770;2023-12-20T07:40:56;10.50;;;3.23;;
21352;SDS011;10834;52.268;6.770;2023-12-20T07:43:41;18.63;;;3.63;;
21352;SDS011;10834;52.268;6.770;2023-12-20T07:46:25;20.57;;;3.30;;
21352;SDS011;10834;52.268;6.770;2023-12-20T07:49:09;12.40;;;3.80;;
21352;SDS011;10834;52.268;6.770;2023-12-20T07:51:54;14.57;;;3.40;;
21352;SDS011;10834;52.268;6.770;2023-12-20T07:54:39;15.90;;;4.50;;
21352;SDS011;10834;52.268;6.770;2023-12-20T07:57:23;18.07;;;3.77;;
21352;SDS011;10834;52.268;6.770;2023-12-20T08:00:08;13.93;;;3.83;;
21352;SDS011;10834;52.268;6.770;2023-12-20T08:02:53;18.00;;;4.03;;
21352;SDS011;10834;52.268;6.770;2023-12-20T08:05:37;18.50;;;3.73;;
21352;SDS011;10834;52.268;6.770;2023-12-20T08:08:23;14.47;;;3.30;;
21352;SDS011;10834;52.268;6.770;2023-12-20T08:11:07;12.40;;;2.57;;
21352;SDS011;10834;52.268;6.770;2023-12-20T08:13:52;21.63;;;3.57;;
21352;SDS011;10834;52.268;6.770;2023-12-20T08:16:36;12.93;;;3.50;;
21352;SDS011;10834;52.268;6.770;2023-12-20T08:19:20;14.40;;;3.27;;
21352;SDS011;10834;52.268;6.770;2023-12-20T08:22:04;16.00;;;4.27;;
21352;SDS011;10834;52.268;6.770;2023-12-20T08:24:48;13.83;;;2.83;;
21352;SDS011;10834;52.268;6.770;2023-12-20T08:27:32;12.80;;;3.47;;
21352;SDS011;10834;52.268;6.770;2023-12-20T08:30:17;10.30;;;3.17;;
21352;SDS011;10834;52.268;6.770;2023-12-20T08:33:04;20.80;;;3.67;;
21352;SDS011;10834;52.268;6.770;2023-12-20T08:35:54;18.00;;;3.90;;
21352;SDS011;10834;52.268;6.770;2023-12-20T08:38:38;14.47;;;3.20;;
21352;SDS011;10834;52.268;6.770;2023-12-20T08:41:23;19.27;;;3.63;;
21352;SDS011;10834;52.268;6.770;2023-12-20T08:44:08;18.13;;;3.27;;
21352;SDS011;10834;52.268;6.770;2023-12-20T08:46:52;16.73;;;3.40;;
21352;SDS011;10834;52.268;6.770;2023-12-20T08:49:36;12.57;;;2.63;;
21352;SDS011;10834;52.268;6.770;2023-12-20T08:52:21;17.20;;;3.40;;
21352;SDS011;10834;52.268;6.770;2023-12-20T08:55:05;15.73;;;2.73;;
21352;SDS011;10834;52.268;6.770;2023-12-20T08:57:50;16.27;;;3.20;;
21352;SDS011;10834;52.268;6.770;2023-12-20T09:00:34;16.37;;;3.93;;
21352;SDS011;10834;52.268;6.770;2023-12-20T09:03:19;9.33;;;3.37;;
21352;SDS011;10834;52.268;6.770;2023-12-20T09:06:03;10.80;;;3.20;;
21352;SDS011;10834;52.268;6.770;2023-12-20T09:08:47;18.63;;;3.33;;
21352;SDS011;10834;52.268;6.770;2023-12-20T09:11:31;15.57;;;3.73;;
21352;SDS011;10834;52.268;6.770;2023-12-20T09:14:15;14.10;;;3.70;;
21352;SDS011;10834;52.268;6.770;2023-12-20T09:16:59;22.27;;;3.23;;
21352;SDS011;10834;52.268;6.770;2023-12-20T09:19:45;9.90;;;3.20;;
21352;SDS011;10834;52.268;6.770;2023-12-20T09:22:29;18.43;;;3.30;;
21352;SDS011;10834;52.268;6.770;2023-12-20T09:25:13;12.77;;;3.13;;
21352;SDS011;10834;52.268;6.770;2023-12-20T09:27:59;16.00;;;4.33;;
21352;SDS011;10834;52.268;6.770;2023-12-20T09:30:43;16.93;;;3.27;;
21352;SDS011;10834;52.268;6.770;2023-12-20T09:33:29;13.73;;;3.20;;
21352;SDS011;10834;52.268;6.770;2023-12-20T09:36:13;15.67;;;3.37;;
21352;SDS011;10834;52.268;6.770;2023-12-20T09:38:58;13.50;;;3.33;;
21352;SDS011;10834;52.268;6.770;2023-12-20T09:41:43;9.97;;;2.83;;
21352;SDS011;10834;52.268;6.770;2023-12-20T09:44:31;24.17;;;4.03;;
21352;SDS011;10834;52.268;6.770;2023-12-20T09:47:18;19.40;;;3.77;;
21352;SDS011;10834;52.268;6.770;2023-12-20T09:50:06;12.23;;;3.37;;
21352;SDS011;10834;52.268;6.770;2023-12-20T09:52:52;12.43;;;3.17;;
21352;SDS011;10834;52.268;6.770;2023-12-20T09:55:37;13.63;;;3.57;;
21352;SDS011;10834;52.268;6.770;2023-12-20T09:58:23;10.20;;;3.33;;
21352;SDS011;10834;52.268;6.770;2023-12-20T10:01:07;13.43;;;4.07;;
21352;SDS011;10834;52.268;6.770;2023-12-20T10:03:52;12.97;;;3.20;;
21352;SDS011;10834;52.268;6.770;2023-12-20T10:06:39;18.23;;;3.10;;
21352;SDS011;10834;52.268;6.770;2023-12-20T10:09:24;15.83;;;3.33;;
21352;SDS011;10834;52.268;6.770;2023-12-20T10:12:08;15.70;;;3.57;;
21352;SDS011;10834;52.268;6.770;2023-12-20T10:14:52;21.48;;;4.53;;
21352;SDS011;10834;52.268;6.770;2023-12-20T10:17:36;21.40;;;4.60;;
21352;SDS011;10834;52.268;6.770;2023-12-20T10:20:20;15.03;;;3.90;;
21352;SDS011;10834;52.268;6.770;2023-12-20T10:23:05;16.03;;;3.13;;
21352;SDS011;10834;52.268;6.770;2023-12-20T10:25:56;17.90;;;5.50;;
21352;SDS011;10834;52.268;6.770;2023-12-20T10:28:41;23.27;;;3.67;;
21352;SDS011;10834;52.268;6.770;2023-12-20T10:31:29;14.33;;;3.20;;
21352;SDS011;10834;52.268;6.770;2023-12-20T10:34:14;12.20;;;3.97;;
21352;SDS011;10834;52.268;6.770;2023-12-20T10:36:58;12.50;;;2.90;;
21352;SDS011;10834;52.268;6.770;2023-12-20T10:39:43;15.70;;;3.10;;
21352;SDS011;10834;52.268;6.770;2023-12-20T10:42:31;14.37;;;4.03;;
21352;SDS011;10834;52.268;6.770;2023-12-20T10:45:19;13.23;;;3.23;;
21352;SDS011;10834;52.268;6.770;2023-12-20T10:48:04;13.83;;;3.43;;
21352;SDS011;10834;52.268;6.770;2023-12-20T10:50:48;13.33;;;3.17;;
21352;SDS011;10834;52.268;6.770;2023-12-20T10:53:33;14.70;;;3.53;;
21352;SDS011;10834;52.268;6.770;2023-12-20T10:56:20;14.13;;;3.53;;
21352;SDS011;10834;52.268;6.770;2023-12-20T10:59:05;14.53;;;3.67;;
21352;SDS011;10834;52.268;6.770;2023-12-20T11:01:53;15.83;;;3.03;;
21352;SDS011;10834;52.268;6.770;2023-12-20T11:07:55;13.77;;;3.63;;
21352;SDS011;10834;52.268;6.770;2023-12-20T11:10:59;12.77;;;3.33;;
21352;SDS011;10834;52.268;6.770;2023-12-20T11:13:55;14.27;;;3.90;;
21352;SDS011;10834;52.268;6.770;2023-12-20T11:17:06;16.30;;;3.43;;
21352;SDS011;10834;52.268;6.770;2023-12-20T11:22:52;12.90;;;3.40;;
21352;SDS011;10834;52.268;6.770;2023-12-20T11:25:53;17.20;;;3.63;;
21352;SDS011;10834;52.268;6.770;2023-12-20T11:28:39;17.37;;;4.00;;
21352;SDS011;10834;52.268;6.770;2023-12-20T11:31:23;15.90;;;5.53;;
21352;SDS011;10834;52.268;6.770;2023-12-20T11:34:13;16.07;;;3.27;;
21352;SDS011;10834;52.268;6.770;2023-12-20T11:37:01;13.63;;;3.93;;
21352;SDS011;10834;52.268;6.770;2023-12-20T11:39:56;13.13;;;3.40;;
21352;SDS011;10834;52.268;6.770;2023-12-20T11:42:44;18.02;;;4.85;;
21352;SDS011;10834;52.268;6.770;2023-12-20T11:45:31;12.57;;;3.30;;
21352;SDS011;10834;52.268;6.770;2023-12-20T11:48:15;14.10;;;2.90;;
21352;SDS011;10834;52.268;6.770;2023-12-20T11:51:00;16.17;;;3.47;;
21352;SDS011;10834;52.268;6.770;2023-12-20T11:53:44;16.87;;;3.63;;
21352;SDS011;10834;52.268;6.770;2023-12-20T11:56:28;3.30;;;0.97;;
21352;SDS011;10834;52.268;6.770;2023-12-20T11:59:12;3.97;;;0.90;;
21352;SDS011;10834;52.268;6.770;2023-12-20T12:01:58;5.13;;;0.80;;
21352;SDS011;10834;52.268;6.770;2023-12-20T12:04:44;6.53;;;0.70;;
21352;SDS011;10834;52.268;6.770;2023-12-20T12:07:28;4.80;;;1.07;;
21352;SDS011;10834;52.268;6.770;2023-12-20T12:10:12;9.33;;;1.17;;
21352;SDS011;10834;52.268;6.770;2023-12-20T12:12:57;4.37;;;0.90;;
21352;SDS011;10834;52.268;6.770;2023-12-20T12:15:41;3.50;;;0.53;;
21352;SDS011;10834;52.268;6.770;2023-12-20T12:18:25;6.10;;;0.90;;
21352;SDS011;10834;52.268;6.770;2023-12-20T12:21:09;5.03;;;0.80;;
21352;SDS011;10834;52.268;6.770;2023-12-20T12:23:54;4.47;;;0.90;;
21352;SDS011;10834;52.268;6.770;2023-12-20T12:26:50;4.70;;;1.00;;
21352;SDS011;10834;52.268;6.770;2023-12-20T12:29:35;7.13;;;1.07;;
21352;SDS011;10834;52.268;6.770;2023-12-20T12:32:20;5.10;;;1.23;;
21352;SDS011;10834;52.268;6.770;2023-12-20T12:35:04;4.17;;;1.10;;
21352;SDS011;10834;52.268;6.770;2023-12-20T12:37:52;11.33;;;1.70;;
21352;SDS011;10834;52.268;6.770;2023-12-20T12:40:36;2.80;;;1.17;;
21352;SDS011;10834;52.268;6.770;2023-12-20T12:43:20;4.17;;;1.00;;
21352;SDS011;10834;52.268;6.770;2023-12-20T12:46:06;5.60;;;0.80;;
21352;SDS011;10834;52.268;6.770;2023-12-20T12:48:50;9.83;;;1.27;;
21352;SDS011;10834;52.268;6.770;2023-12-20T12:51:34;7.07;;;1.83;;
21352;SDS011;10834;52.268;6.770;2023-12-20T12:54:18;4.20;;;1.17;;
21352;SDS011;10834;52.268;6.770;2023-12-20T12:57:02;6.40;;;1.30;;
21352;SDS011;10834;52.268;6.770;2023-12-20T12:59:47;4.93;;;1.30;;
21352;SDS011;10834;52.268;6.770;2023-12-20T13:02:31;4.30;;;1.10;;
21352;SDS011;10834;52.268;6.770;2023-12-20T13:05:15;7.37;;;1.10;;
21352;SDS011;10834;52.268;6.770;2023-12-20T13:07:59;8.37;;;1.13;;
21352;SDS011;10834;52.268;6.770;2023-12-20T13:10:43;6.13;;;1.20;;
21352;SDS011;10834;52.268;6.770;2023-12-20T13:13:27;3.63;;;1.03;;
21352;SDS011;10834;52.268;6.770;2023-12-20T13:16:12;6.10;;;1.57;;
21352;SDS011;10834;52.268;6.770;2023-12-20T13:18:57;6.23;;;1.07;;
21352;SDS011;10834;52.268;6.770;2023-12-20T13:21:42;4.53;;;1.10;;
21352;SDS011;10834;52.268;6.770;2023-12-20T13:24:26;10.67;;;0.97;;
21352;SDS011;10834;52.268;6.770;2023-12-20T13:27:10;3.53;;;1.07;;
21352;SDS011;10834;52.268;6.770;2023-12-20T13:29:55;10.63;;;1.57;;
21352;SDS011;10834;52.268;6.770;2023-12-20T13:32:39;3.07;;;1.00;;
21352;SDS011;10834;52.268;6.770;2023-12-20T13:35:23;5.37;;;1.10;;
21352;SDS011;10834;52.268;6.770;2023-12-20T13:38:07;6.63;;;0.97;;
21352;SDS011;10834;52.268;6.770;2023-12-20T13:40:51;6.63;;;1.40;;
21352;SDS011;10834;52.268;6.770;2023-12-20T13:43:36;4.60;;;1.23;;
21352;SDS011;10834;52.268;6.770;2023-12-20T13:46:20;7.40;;;1.73;;
21352;SDS011;10834;52.268;6.770;2023-12-20T13:49:04;5.53;;;1.10;;
21352;SDS011;10834;52.268;6.770;2023-12-20T13:51:48;7.03;;;1.50;;
21352;SDS011;10834;52.268;6.770;2023-12-20T13:54:32;5.80;;;1.30;;
21352;SDS011;10834;52.268;6.770;2023-12-20T13:57:16;8.83;;;2.03;;
21352;SDS011;10834;52.268;6.770;2023-12-20T14:00:01;9.10;;;3.17;;
21352;SDS011;10834;52.268;6.770;2023-12-20T14:02:47;7.40;;;2.20;;
21352;SDS011;10834;52.268;6.770;2023-12-20T14:05:32;6.23;;;2.20;;
21352;SDS011;10834;52.268;6.770;2023-12-20T14:08:17;7.67;;;2.63;;
21352;SDS011;10834;52.268;6.770;2023-12-20T14:11:01;7.73;;;2.37;;
21352;SDS011;10834;52.268;6.770;2023-12-20T14:13:46;9.13;;;2.50;;
21352;SDS011;10834;52.268;6.770;2023-12-20T14:16:30;10.40;;;3.43;;
21352;SDS011;10834;52.268;6.770;2023-12-20T14:19:14;8.63;;;2.90;;
21352;SDS011;10834;52.268;6.770;2023-12-20T14:21:58;11.53;;;2.40;;
21352;SDS011;10834;52.268;6.770;2023-12-20T14:24:46;9.13;;;2.47;;
21352;SDS011;10834;52.268;6.770;2023-12-20T14:27:30;12.27;;;2.70;;
21352;SDS011;10834;52.268;6.770;2023-12-20T14:30:15;12.17;;;2.57;;
21352;SDS011;10834;52.268;6.770;2023-12-20T14:33:00;10.80;;;2.40;;
21352;SDS011;10834;52.268;6.770;2023-12-20T14:35:44;12.60;;;3.40;;
21352;SDS011;10834;52.268;6.770;2023-12-20T14:38:28;12.20;;;3.37;;
21352;SDS011;10834;52.268;6.770;2023-12-20T14:41:13;10.00;;;3.03;;
21352;SDS011;10834;52.268;6.770;2023-12-20T14:43:57;15.17;;;2.97;;
21352;SDS011;10834;52.268;6.770;2023-12-20T14:46:43;12.30;;;3.00;;
21352;SDS011;10834;52.268;6.770;2023-12-20T14:49:27;12.63;;;2.77;;
21352;SDS011;10834;52.268;6.770;2023-12-20T14:52:11;20.83;;;3.20;;
21352;SDS011;10834;52.268;6.770;2023-12-20T14:54:55;6.27;;;1.90;;
21352;SDS011;10834;52.268;6.770;2023-12-20T14:57:39;8.67;;;2.20;;
21352;SDS011;10834;52.268;6.770;2023-12-20T15:00:23;7.70;;;2.30;;
21352;SDS011;10834;52.268;6.770;2023-12-20T15:03:07;10.87;;;3.70;;
21352;SDS011;10834;52.268;6.770;2023-12-20T15:05:51;11.05;;;2.40;;
21352;SDS011;10834;52.268;6.770;2023-12-20T15:08:35;15.97;;;3.03;;
21352;SDS011;10834;52.268;6.770;2023-12-20T15:11:19;13.93;;;2.50;;
21352;SDS011;10834;52.268;6.770;2023-12-20T15:14:03;13.20;;;2.70;;
21352;SDS011;10834;52.268;6.770;2023-12-20T15:16:47;9.77;;;2.30;;
21352;SDS011;10834;52.268;6.770;2023-12-20T15:19:31;10.10;;;2.80;;
21352;SDS011;10834;52.268;6.770;2023-12-20T15:22:16;15.50;;;2.83;;
21352;SDS011;10834;52.268;6.770;2023-12-20T15:25:00;10.67;;;2.80;;
21352;SDS011;10834;52.268;6.770;2023-12-20T15:27:45;12.38;;;3.38;;
21352;SDS011;10834;52.268;6.770;2023-12-20T15:30:32;19.53;;;3.40;;
21352;SDS011;10834;52.268;6.770;2023-12-20T15:33:17;13.27;;;3.67;;
21352;SDS011;10834;52.268;6.770;2023-12-20T15:36:01;14.23;;;3.33;;
21352;SDS011;10834;52.268;6.770;2023-12-20T15:38:45;12.40;;;3.13;;
21352;SDS011;10834;52.268;6.770;2023-12-20T15:41:29;14.57;;;2.90;;
21352;SDS011;10834;52.268;6.770;2023-12-20T15:44:14;11.80;;;2.80;;
21352;SDS011;10834;52.268;6.770;2023-12-20T15:46:59;15.83;;;2.67;;
21352;SDS011;10834;52.268;6.770;2023-12-20T15:49:43;8.00;;;3.10;;
21352;SDS011;10834;52.268;6.770;2023-12-20T15:52:29;14.67;;;3.23;;
21352;SDS011;10834;52.268;6.770;2023-12-20T15:55:14;14.87;;;3.10;;
21352;SDS011;10834;52.268;6.770;2023-12-20T15:57:58;12.07;;;2.70;;
21352;SDS011;10834;52.268;6.770;2023-12-20T16:00:43;14.67;;;3.17;;
21352;SDS011;10834;52.268;6.770;2023-12-20T16:03:27;12.73;;;3.10;;
21352;SDS011;10834;52.268;6.770;2023-12-20T16:06:11;15.03;;;2.80;;
21352;SDS011;10834;52.268;6.770;2023-12-20T16:08:56;11.13;;;2.50;;
21352;SDS011;10834;52.268;6.770;2023-12-20T16:11:40;14.67;;;2.73;;
21352;SDS011;10834;52.268;6.770;2023-12-20T16:14:26;16.13;;;2.73;;
21352;SDS011;10834;52.268;6.770;2023-12-20T16:17:13;13.80;;;3.00;;
21352;SDS011;10834;52.268;6.770;2023-12-20T16:19:57;9.87;;;2.70;;
21352;SDS011;10834;52.268;6.770;2023-12-20T16:22:41;7.77;;;2.80;;
21352;SDS011;10834;52.268;6.770;2023-12-20T16:25:25;10.17;;;2.63;;
21352;SDS011;10834;52.268;6.770;2023-12-20T16:28:10;14.40;;;2.97;;